sensor_id;sensor_type;location;lat;lon;timestamp;P1;durP1;ratioP1;P2;durP2;ratioP2
2824;SDS011;1420;51.324;12.344;2022-07-29T00:01:49;15.72;;;3.94;;
2824;SDS011;1420;51.324;12.344;2022-07-29T00:04:18;13.00;;;2.68;;
2824;SDS011;1420;51.324;12.344;2022-07-29T00:06:45;16.46;;;5.74;;
2824;SDS011;1420;51.324;12.344;2022-07-29T00:09:13;15.28;;;6.10;;
2824;SDS011;1420;51.324;12.344;2022-07-29T00:11:40;13.74;;;4.84;;
2824;SDS011;1420;51.324;12.344;2022-07-29T00:14:09;16.72;;;3.48;;
2824;SDS011;1420;51.324;12.344;2022-07-29T00:16:35;13.62;;;2.90;;
2824;SDS011;1420;51.324;12.344;2022-07-29T00:19:02;14.52;;;5.48;;
2824;SDS011;1420;51.324;12.344;2022-07-29T00:21:29;14.20;;;6.00;;
2824;SDS011;1420;51.324;12.344;2022-07-29T00:23:56;14.04;;;3.20;;
2824;SDS011;1420;51.324;12.344;2022-07-29T00:26:24;28.04;;;5.68;;
2824;SDS011;1420;51.324;12.344;2022-07-29T00:28:51;29.32;;;16.82;;
2824;SDS011;1420;51.324;12.344;2022-07-29T00:31:18;15.50;;;4.38;;
2824;SDS011;1420;51.324;12.344;2022-07-29T00:33:45;13.32;;;2.22;;
2824;SDS011;1420;51.324;12.344;2022-07-29T00:36:12;15.64;;;1.82;;
2824;SDS011;1420;51.324;12.344;2022-07-29T00:38:40;13.62;;;2.76;;
2824;SDS011;1420;51.324;12.344;2022-07-29T00:41:07;12.64;;;1.82;;
2824;SDS011;1420;51.324;12.344;2022-07-29T00:43:34;16.02;;;4.54;;
2824;SDS011;1420;51.324;12.344;2022-07-29T00:46:02;16.42;;;1.98;;
2824;SDS011;1420;51.324;12.344;2022-07-29T00:48:29;12.70;;;2.14;;
2824;SDS011;1420;51.324;12.344;2022-07-29T00:50:57;14.56;;;3.60;;
2824;SDS011;1420;51.324;12.344;2022-07-29T00:53:24;11.46;;;1.90;;
2824;SDS011;1420;51.324;12.344;2022-07-29T00:55:50;16.04;;;6.96;;
2824;SDS011;1420;51.324;12.344;2022-07-29T00:58:18;18.44;;;7.36;;
2824;SDS011;1420;51.324;12.344;2022-07-29T01:00:45;13.64;;;2.34;;
2824;SDS011;1420;51.324;12.344;2022-07-29T01:03:12;12.36;;;2.04;;
2824;SDS011;1420;51.324;12.344;2022-07-29T01:05:39;18.02;;;8.34;;
2824;SDS011;1420;51.324;12.344;2022-07-29T01:08:06;12.68;;;1.92;;
2824;SDS011;1420;51.324;12.344;2022-07-29T01:10:34;11.94;;;1.64;;
2824;SDS011;1420;51.324;12.344;2022-07-29T01:13:01;12.84;;;2.20;;
2824;SDS011;1420;51.324;12.344;2022-07-29T01:15:28;11.46;;;1.62;;
2824;SDS011;1420;51.324;12.344;2022-07-29T01:18:01;13.72;;;1.74;;
2824;SDS011;1420;51.324;12.344;2022-07-29T01:21:38;11.80;;;1.88;;
2824;SDS011;1420;51.324;12.344;2022-07-29T01:24:35;14.10;;;1.90;;
2824;SDS011;1420;51.324;12.344;2022-07-29T01:26:23;12.36;;;1.76;;
2824;SDS011;1420;51.324;12.344;2022-07-29T01:29:03;13.12;;;2.22;;
2824;SDS011;1420;51.324;12.344;2022-07-29T01:34:06;12.44;;;2.98;;
2824;SDS011;1420;51.324;12.344;2022-07-29T01:36:36;27.00;;;2.70;;
2824;SDS011;1420;51.324;12.344;2022-07-29T01:39:10;12.04;;;2.48;;
2824;SDS011;1420;51.324;12.344;2022-07-29T01:41:34;14.42;;;2.00;;
2824;SDS011;1420;51.324;12.344;2022-07-29T01:44:02;18.34;;;5.18;;
2824;SDS011;1420;51.324;12.344;2022-07-29T01:46:34;17.22;;;7.06;;
2824;SDS011;1420;51.324;12.344;2022-07-29T01:49:02;23.90;;;20.34;;
2824;SDS011;1420;51.324;12.344;2022-07-29T01:51:35;19.88;;;14.54;;
2824;SDS011;1420;51.324;12.344;2022-07-29T01:54:02;29.80;;;27.02;;
2824;SDS011;1420;51.324;12.344;2022-07-29T01:56:29;44.58;;;41.04;;
2824;SDS011;1420;51.324;12.344;2022-07-29T01:58:56;34.80;;;31.30;;
2824;SDS011;1420;51.324;12.344;2022-07-29T02:01:23;29.88;;;26.98;;
2824;SDS011;1420;51.324;12.344;2022-07-29T02:03:50;30.24;;;27.30;;
2824;SDS011;1420;51.324;12.344;2022-07-29T02:06:19;29.46;;;26.58;;
2824;SDS011;1420;51.324;12.344;2022-07-29T02:08:45;28.24;;;25.68;;
2824;SDS011;1420;51.324;12.344;2022-07-29T02:11:13;30.52;;;27.82;;
2824;SDS011;1420;51.324;12.344;2022-07-29T02:13:41;37.36;;;34.38;;
2824;SDS011;1420;51.324;12.344;2022-07-29T02:16:09;60.34;;;55.52;;
2824;SDS011;1420;51.324;12.344;2022-07-29T02:18:37;39.28;;;35.84;;
2824;SDS011;1420;51.324;12.344;2022-07-29T02:21:03;37.36;;;34.36;;
2824;SDS011;1420;51.324;12.344;2022-07-29T02:23:31;31.46;;;28.44;;
2824;SDS011;1420;51.324;12.344;2022-07-29T02:25:58;27.66;;;25.00;;
2824;SDS011;1420;51.324;12.344;2022-07-29T02:28:25;21.34;;;17.78;;
2824;SDS011;1420;51.324;12.344;2022-07-29T02:30:52;26.86;;;24.18;;
2824;SDS011;1420;51.324;12.344;2022-07-29T02:33:19;38.88;;;35.52;;
2824;SDS011;1420;51.324;12.344;2022-07-29T02:35:47;30.82;;;27.70;;
2824;SDS011;1420;51.324;12.344;2022-07-29T02:38:15;44.10;;;40.54;;
2824;SDS011;1420;51.324;12.344;2022-07-29T02:40:48;21.40;;;17.90;;
2824;SDS011;1420;51.324;12.344;2022-07-29T02:43:15;40.80;;;37.02;;
2824;SDS011;1420;51.324;12.344;2022-07-29T02:45:42;46.58;;;42.24;;
2824;SDS011;1420;51.324;12.344;2022-07-29T02:48:10;34.50;;;31.72;;
2824;SDS011;1420;51.324;12.344;2022-07-29T02:50:38;33.80;;;30.56;;
2824;SDS011;1420;51.324;12.344;2022-07-29T02:53:07;37.42;;;34.10;;
2824;SDS011;1420;51.324;12.344;2022-07-29T02:55:33;50.80;;;46.22;;
2824;SDS011;1420;51.324;12.344;2022-07-29T02:58:12;48.34;;;43.88;;
2824;SDS011;1420;51.324;12.344;2022-07-29T03:00:40;45.02;;;41.16;;
2824;SDS011;1420;51.324;12.344;2022-07-29T03:03:08;60.82;;;56.20;;
2824;SDS011;1420;51.324;12.344;2022-07-29T03:05:34;37.88;;;34.64;;
2824;SDS011;1420;51.324;12.344;2022-07-29T03:08:02;53.38;;;49.04;;
2824;SDS011;1420;51.324;12.344;2022-07-29T03:10:29;36.08;;;32.26;;
2824;SDS011;1420;51.324;12.344;2022-07-29T03:12:56;37.68;;;34.56;;
2824;SDS011;1420;51.324;12.344;2022-07-29T03:15:24;22.52;;;20.12;;
2824;SDS011;1420;51.324;12.344;2022-07-29T03:17:52;36.14;;;32.78;;
2824;SDS011;1420;51.324;12.344;2022-07-29T03:20:20;39.78;;;36.42;;
2824;SDS011;1420;51.324;12.344;2022-07-29T03:22:48;20.92;;;18.70;;
2824;SDS011;1420;51.324;12.344;2022-07-29T03:25:16;45.84;;;42.20;;
2824;SDS011;1420;51.324;12.344;2022-07-29T03:27:42;45.94;;;42.24;;
2824;SDS011;1420;51.324;12.344;2022-07-29T03:30:10;27.62;;;25.02;;
2824;SDS011;1420;51.324;12.344;2022-07-29T03:32:38;39.78;;;36.40;;
2824;SDS011;1420;51.324;12.344;2022-07-29T03:35:05;32.44;;;29.60;;
2824;SDS011;1420;51.324;12.344;2022-07-29T03:37:32;33.32;;;30.10;;
2824;SDS011;1420;51.324;12.344;2022-07-29T03:40:00;34.34;;;31.54;;
2824;SDS011;1420;51.324;12.344;2022-07-29T03:42:28;44.34;;;40.42;;
2824;SDS011;1420;51.324;12.344;2022-07-29T03:44:54;64.54;;;59.68;;
2824;SDS011;1420;51.324;12.344;2022-07-29T03:47:22;32.84;;;30.02;;
2824;SDS011;1420;51.324;12.344;2022-07-29T03:49:49;21.58;;;18.50;;
2824;SDS011;1420;51.324;12.344;2022-07-29T03:52:16;59.96;;;54.94;;
2824;SDS011;1420;51.324;12.344;2022-07-29T03:54:43;44.64;;;41.02;;
2824;SDS011;1420;51.324;12.344;2022-07-29T03:57:11;34.92;;;31.40;;
2824;SDS011;1420;51.324;12.344;2022-07-29T03:59:39;53.32;;;48.50;;
2824;SDS011;1420;51.324;12.344;2022-07-29T04:02:08;28.30;;;25.40;;
2824;SDS011;1420;51.324;12.344;2022-07-29T04:04:34;31.48;;;28.54;;
2824;SDS011;1420;51.324;12.344;2022-07-29T04:07:01;37.32;;;34.32;;
2824;SDS011;1420;51.324;12.344;2022-07-29T04:09:28;31.60;;;28.62;;
2824;SDS011;1420;51.324;12.344;2022-07-29T04:11:55;33.64;;;30.76;;
2824;SDS011;1420;51.324;12.344;2022-07-29T04:14:23;35.48;;;32.44;;
2824;SDS011;1420;51.324;12.344;2022-07-29T04:16:50;35.18;;;30.70;;
2824;SDS011;1420;51.324;12.344;2022-07-29T04:19:17;30.08;;;27.20;;
2824;SDS011;1420;51.324;12.344;2022-07-29T04:21:45;42.58;;;38.82;;
2824;SDS011;1420;51.324;12.344;2022-07-29T04:24:13;41.08;;;37.60;;
2824;SDS011;1420;51.324;12.344;2022-07-29T04:26:41;35.26;;;31.94;;
2824;SDS011;1420;51.324;12.344;2022-07-29T04:29:09;27.14;;;23.44;;
2824;SDS011;1420;51.324;12.344;2022-07-29T04:31:36;22.96;;;19.84;;
2824;SDS011;1420;51.324;12.344;2022-07-29T04:34:03;22.92;;;19.68;;
2824;SDS011;1420;51.324;12.344;2022-07-29T04:36:31;41.82;;;38.38;;
2824;SDS011;1420;51.324;12.344;2022-07-29T04:38:58;27.92;;;25.18;;
2824;SDS011;1420;51.324;12.344;2022-07-29T04:41:25;32.00;;;28.90;;
2824;SDS011;1420;51.324;12.344;2022-07-29T04:43:52;44.56;;;40.56;;
2824;SDS011;1420;51.324;12.344;2022-07-29T04:46:19;34.92;;;31.64;;
2824;SDS011;1420;51.324;12.344;2022-07-29T04:48:47;28.14;;;25.44;;
2824;SDS011;1420;51.324;12.344;2022-07-29T04:51:15;30.62;;;27.52;;
2824;SDS011;1420;51.324;12.344;2022-07-29T04:53:43;20.30;;;15.92;;
2824;SDS011;1420;51.324;12.344;2022-07-29T04:56:11;20.94;;;18.82;;
2824;SDS011;1420;51.324;12.344;2022-07-29T04:58:39;27.88;;;25.16;;
2824;SDS011;1420;51.324;12.344;2022-07-29T05:01:07;28.00;;;25.12;;
2824;SDS011;1420;51.324;12.344;2022-07-29T05:03:34;19.22;;;13.32;;
2824;SDS011;1420;51.324;12.344;2022-07-29T05:06:02;29.76;;;26.60;;
2824;SDS011;1420;51.324;12.344;2022-07-29T05:08:29;19.36;;;16.54;;
2824;SDS011;1420;51.324;12.344;2022-07-29T05:10:56;23.68;;;21.24;;
2824;SDS011;1420;51.324;12.344;2022-07-29T05:13:24;19.22;;;17.04;;
2824;SDS011;1420;51.324;12.344;2022-07-29T05:15:52;17.98;;;13.52;;
2824;SDS011;1420;51.324;12.344;2022-07-29T05:18:20;21.54;;;16.50;;
2824;SDS011;1420;51.324;12.344;2022-07-29T05:20:48;17.38;;;13.44;;
2824;SDS011;1420;51.324;12.344;2022-07-29T05:23:15;27.44;;;24.68;;
2824;SDS011;1420;51.324;12.344;2022-07-29T05:25:42;33.34;;;30.02;;
2824;SDS011;1420;51.324;12.344;2022-07-29T05:28:10;26.64;;;24.20;;
2824;SDS011;1420;51.324;12.344;2022-07-29T05:30:37;21.32;;;18.88;;
2824;SDS011;1420;51.324;12.344;2022-07-29T05:33:04;38.26;;;35.14;;
2824;SDS011;1420;51.324;12.344;2022-07-29T05:35:31;30.04;;;26.28;;
2824;SDS011;1420;51.324;12.344;2022-07-29T05:37:58;27.42;;;24.70;;
2824;SDS011;1420;51.324;12.344;2022-07-29T05:40:26;35.98;;;32.80;;
2824;SDS011;1420;51.324;12.344;2022-07-29T05:42:55;36.32;;;33.14;;
2824;SDS011;1420;51.324;12.344;2022-07-29T05:45:22;33.14;;;30.28;;
2824;SDS011;1420;51.324;12.344;2022-07-29T05:47:49;35.02;;;32.04;;
2824;SDS011;1420;51.324;12.344;2022-07-29T05:50:16;30.56;;;27.82;;
2824;SDS011;1420;51.324;12.344;2022-07-29T05:52:44;25.94;;;21.28;;
2824;SDS011;1420;51.324;12.344;2022-07-29T05:55:11;26.00;;;23.36;;
2824;SDS011;1420;51.324;12.344;2022-07-29T05:57:38;18.92;;;15.72;;
2824;SDS011;1420;51.324;12.344;2022-07-29T06:00:05;22.52;;;18.86;;
2824;SDS011;1420;51.324;12.344;2022-07-29T06:02:33;48.58;;;44.64;;
2824;SDS011;1420;51.324;12.344;2022-07-29T06:05:01;22.06;;;19.66;;
2824;SDS011;1420;51.324;12.344;2022-07-29T06:07:28;32.90;;;30.14;;
2824;SDS011;1420;51.324;12.344;2022-07-29T06:09:55;35.22;;;32.14;;
2824;SDS011;1420;51.324;12.344;2022-07-29T06:12:22;24.98;;;22.52;;
2824;SDS011;1420;51.324;12.344;2022-07-29T06:14:50;38.48;;;34.88;;
2824;SDS011;1420;51.324;12.344;2022-07-29T06:17:18;34.98;;;31.88;;
2824;SDS011;1420;51.324;12.344;2022-07-29T06:19:46;25.40;;;22.94;;
2824;SDS011;1420;51.324;12.344;2022-07-29T06:22:15;34.68;;;31.78;;
2824;SDS011;1420;51.324;12.344;2022-07-29T06:24:41;32.88;;;29.90;;
2824;SDS011;1420;51.324;12.344;2022-07-29T06:27:10;21.78;;;17.98;;
2824;SDS011;1420;51.324;12.344;2022-07-29T06:29:37;20.38;;;16.34;;
2824;SDS011;1420;51.324;12.344;2022-07-29T06:32:04;19.70;;;15.00;;
2824;SDS011;1420;51.324;12.344;2022-07-29T06:34:31;31.54;;;28.80;;
2824;SDS011;1420;51.324;12.344;2022-07-29T06:36:59;26.56;;;24.08;;
2824;SDS011;1420;51.324;12.344;2022-07-29T06:39:26;24.58;;;18.28;;
2824;SDS011;1420;51.324;12.344;2022-07-29T06:41:54;21.24;;;19.00;;
2824;SDS011;1420;51.324;12.344;2022-07-29T06:44:22;29.14;;;26.04;;
2824;SDS011;1420;51.324;12.344;2022-07-29T06:46:50;19.82;;;16.52;;
2824;SDS011;1420;51.324;12.344;2022-07-29T06:49:18;21.92;;;19.72;;
2824;SDS011;1420;51.324;12.344;2022-07-29T06:51:46;17.22;;;15.26;;
2824;SDS011;1420;51.324;12.344;2022-07-29T06:54:13;18.30;;;14.02;;
2824;SDS011;1420;51.324;12.344;2022-07-29T06:56:40;15.94;;;12.02;;
2824;SDS011;1420;51.324;12.344;2022-07-29T06:59:08;16.08;;;11.26;;
2824;SDS011;1420;51.324;12.344;2022-07-29T07:01:35;16.62;;;12.20;;
2824;SDS011;1420;51.324;12.344;2022-07-29T07:04:02;16.12;;;12.02;;
2824;SDS011;1420;51.324;12.344;2022-07-29T07:06:29;14.94;;;11.42;;
2824;SDS011;1420;51.324;12.344;2022-07-29T07:08:56;11.74;;;5.62;;
2824;SDS011;1420;51.324;12.344;2022-07-29T07:11:23;10.80;;;3.40;;
2824;SDS011;1420;51.324;12.344;2022-07-29T07:13:50;11.04;;;3.06;;
2824;SDS011;1420;51.324;12.344;2022-07-29T07:16:18;11.26;;;2.52;;
2824;SDS011;1420;51.324;12.344;2022-07-29T07:18:45;10.82;;;3.46;;
2824;SDS011;1420;51.324;12.344;2022-07-29T07:21:12;10.38;;;3.30;;
2824;SDS011;1420;51.324;12.344;2022-07-29T07:23:40;12.24;;;2.78;;
2824;SDS011;1420;51.324;12.344;2022-07-29T07:26:08;9.74;;;2.86;;
2824;SDS011;1420;51.324;12.344;2022-07-29T07:28:36;13.24;;;2.90;;
2824;SDS011;1420;51.324;12.344;2022-07-29T07:31:04;10.50;;;2.56;;
2824;SDS011;1420;51.324;12.344;2022-07-29T07:33:32;13.74;;;3.32;;
2824;SDS011;1420;51.324;12.344;2022-07-29T07:36:00;10.56;;;2.78;;
2824;SDS011;1420;51.324;12.344;2022-07-29T07:38:27;10.84;;;3.12;;
2824;SDS011;1420;51.324;12.344;2022-07-29T07:40:54;12.20;;;4.50;;
2824;SDS011;1420;51.324;12.344;2022-07-29T07:43:22;15.48;;;5.90;;
2824;SDS011;1420;51.324;12.344;2022-07-29T07:45:49;15.26;;;6.00;;
2824;SDS011;1420;51.324;12.344;2022-07-29T07:48:16;18.70;;;7.42;;
2824;SDS011;1420;51.324;12.344;2022-07-29T07:50:44;15.90;;;7.48;;
2824;SDS011;1420;51.324;12.344;2022-07-29T07:53:12;14.14;;;5.20;;
2824;SDS011;1420;51.324;12.344;2022-07-29T07:55:40;13.70;;;5.18;;
2824;SDS011;1420;51.324;12.344;2022-07-29T07:58:08;14.10;;;4.92;;
2824;SDS011;1420;51.324;12.344;2022-07-29T08:00:35;13.92;;;6.08;;
2824;SDS011;1420;51.324;12.344;2022-07-29T08:03:02;18.08;;;10.40;;
2824;SDS011;1420;51.324;12.344;2022-07-29T08:05:29;18.54;;;8.70;;
2824;SDS011;1420;51.324;12.344;2022-07-29T08:07:56;13.76;;;4.66;;
2824;SDS011;1420;51.324;12.344;2022-07-29T08:10:23;15.52;;;6.40;;
2824;SDS011;1420;51.324;12.344;2022-07-29T08:12:56;18.38;;;9.66;;
2824;SDS011;1420;51.324;12.344;2022-07-29T08:15:23;15.20;;;6.86;;
2824;SDS011;1420;51.324;12.344;2022-07-29T08:17:51;17.68;;;8.88;;
2824;SDS011;1420;51.324;12.344;2022-07-29T08:20:18;17.02;;;7.34;;
2824;SDS011;1420;51.324;12.344;2022-07-29T08:22:45;16.82;;;6.12;;
2824;SDS011;1420;51.324;12.344;2022-07-29T08:25:12;17.78;;;9.14;;
2824;SDS011;1420;51.324;12.344;2022-07-29T08:27:39;19.62;;;10.62;;
2824;SDS011;1420;51.324;12.344;2022-07-29T08:30:07;19.00;;;10.16;;
2824;SDS011;1420;51.324;12.344;2022-07-29T08:32:35;19.40;;;9.62;;
2824;SDS011;1420;51.324;12.344;2022-07-29T08:35:02;25.60;;;20.24;;
2824;SDS011;1420;51.324;12.344;2022-07-29T08:37:30;22.84;;;16.38;;
2824;SDS011;1420;51.324;12.344;2022-07-29T08:39:57;17.68;;;10.34;;
2824;SDS011;1420;51.324;12.344;2022-07-29T08:42:24;17.46;;;9.92;;
2824;SDS011;1420;51.324;12.344;2022-07-29T08:44:52;16.14;;;5.84;;
2824;SDS011;1420;51.324;12.344;2022-07-29T08:47:19;14.82;;;6.74;;
2824;SDS011;1420;51.324;12.344;2022-07-29T08:49:46;19.50;;;11.96;;
2824;SDS011;1420;51.324;12.344;2022-07-29T08:52:13;19.22;;;13.58;;
2824;SDS011;1420;51.324;12.344;2022-07-29T08:54:42;14.72;;;5.24;;
2824;SDS011;1420;51.324;12.344;2022-07-29T08:57:08;16.62;;;10.82;;
2824;SDS011;1420;51.324;12.344;2022-07-29T08:59:35;19.40;;;12.46;;
2824;SDS011;1420;51.324;12.344;2022-07-29T09:02:03;17.36;;;9.28;;
2824;SDS011;1420;51.324;12.344;2022-07-29T09:04:31;17.50;;;9.82;;
2824;SDS011;1420;51.324;12.344;2022-07-29T09:06:58;16.28;;;9.74;;
2824;SDS011;1420;51.324;12.344;2022-07-29T09:09:25;16.46;;;8.08;;
2824;SDS011;1420;51.324;12.344;2022-07-29T09:11:53;18.12;;;7.92;;
2824;SDS011;1420;51.324;12.344;2022-07-29T09:14:21;17.98;;;9.04;;
2824;SDS011;1420;51.324;12.344;2022-07-29T09:16:50;21.44;;;15.34;;
2824;SDS011;1420;51.324;12.344;2022-07-29T09:19:20;16.36;;;6.92;;
2824;SDS011;1420;51.324;12.344;2022-07-29T09:21:47;15.30;;;6.82;;
2824;SDS011;1420;51.324;12.344;2022-07-29T09:24:20;15.20;;;6.54;;
2824;SDS011;1420;51.324;12.344;2022-07-29T09:26:48;14.84;;;7.24;;
2824;SDS011;1420;51.324;12.344;2022-07-29T09:29:17;17.64;;;10.82;;
2824;SDS011;1420;51.324;12.344;2022-07-29T09:31:46;16.18;;;9.80;;
2824;SDS011;1420;51.324;12.344;2022-07-29T09:34:14;17.30;;;9.38;;
2824;SDS011;1420;51.324;12.344;2022-07-29T09:36:42;20.34;;;11.64;;
2824;SDS011;1420;51.324;12.344;2022-07-29T09:39:08;14.62;;;6.74;;
2824;SDS011;1420;51.324;12.344;2022-07-29T09:44:14;14.74;;;6.08;;
2824;SDS011;1420;51.324;12.344;2022-07-29T09:47:15;15.40;;;7.04;;
2824;SDS011;1420;51.324;12.344;2022-07-29T09:49:26;21.28;;;13.28;;
2824;SDS011;1420;51.324;12.344;2022-07-29T09:54:30;23.08;;;19.88;;
2824;SDS011;1420;51.324;12.344;2022-07-29T09:56:58;21.08;;;10.80;;
2824;SDS011;1420;51.324;12.344;2022-07-29T09:59:25;19.12;;;10.70;;
2824;SDS011;1420;51.324;12.344;2022-07-29T10:01:52;20.30;;;13.68;;
2824;SDS011;1420;51.324;12.344;2022-07-29T10:04:19;17.06;;;9.42;;
2824;SDS011;1420;51.324;12.344;2022-07-29T10:09:22;18.44;;;11.22;;
2824;SDS011;1420;51.324;12.344;2022-07-29T10:12:06;15.92;;;6.86;;
2824;SDS011;1420;51.324;12.344;2022-07-29T10:14:33;15.94;;;5.76;;
2824;SDS011;1420;51.324;12.344;2022-07-29T10:17:01;18.40;;;9.92;;
2824;SDS011;1420;51.324;12.344;2022-07-29T10:19:29;18.54;;;9.26;;
2824;SDS011;1420;51.324;12.344;2022-07-29T10:21:58;18.56;;;9.20;;
2824;SDS011;1420;51.324;12.344;2022-07-29T10:24:26;15.86;;;6.36;;
2824;SDS011;1420;51.324;12.344;2022-07-29T10:26:54;22.86;;;16.02;;
2824;SDS011;1420;51.324;12.344;2022-07-29T10:29:21;20.94;;;15.34;;
2824;SDS011;1420;51.324;12.344;2022-07-29T10:31:59;24.62;;;20.82;;
2824;SDS011;1420;51.324;12.344;2022-07-29T10:34:51;21.98;;;15.50;;
2824;SDS011;1420;51.324;12.344;2022-07-29T10:37:20;18.22;;;8.50;;
2824;SDS011;1420;51.324;12.344;2022-07-29T10:39:55;22.70;;;15.62;;
2824;SDS011;1420;51.324;12.344;2022-07-29T10:42:32;15.96;;;6.94;;
2824;SDS011;1420;51.324;12.344;2022-07-29T10:44:59;14.84;;;7.12;;
2824;SDS011;1420;51.324;12.344;2022-07-29T10:47:27;17.44;;;10.74;;
2824;SDS011;1420;51.324;12.344;2022-07-29T10:50:02;17.60;;;8.64;;
2824;SDS011;1420;51.324;12.344;2022-07-29T10:58:10;15.98;;;5.40;;
2824;SDS011;1420;51.324;12.344;2022-07-29T11:00:40;18.30;;;10.80;;
2824;SDS011;1420;51.324;12.344;2022-07-29T11:03:07;19.66;;;12.96;;
2824;SDS011;1420;51.324;12.344;2022-07-29T11:08:17;20.72;;;13.30;;
2824;SDS011;1420;51.324;12.344;2022-07-29T11:10:43;18.80;;;10.88;;
2824;SDS011;1420;51.324;12.344;2022-07-29T11:13:11;23.04;;;15.68;;
2824;SDS011;1420;51.324;12.344;2022-07-29T11:18:17;23.64;;;19.20;;
2824;SDS011;1420;51.324;12.344;2022-07-29T11:20:46;22.72;;;15.80;;
2824;SDS011;1420;51.324;12.344;2022-07-29T11:28:26;22.84;;;15.48;;
2824;SDS011;1420;51.324;12.344;2022-07-29T11:30:53;30.56;;;27.32;;
2824;SDS011;1420;51.324;12.344;2022-07-29T11:33:27;24.56;;;18.86;;
2824;SDS011;1420;51.324;12.344;2022-07-29T11:38:33;20.40;;;10.58;;
2824;SDS011;1420;51.324;12.344;2022-07-29T11:46:12;25.24;;;17.90;;
2824;SDS011;1420;51.324;12.344;2022-07-29T11:48:42;47.74;;;43.82;;
2824;SDS011;1420;51.324;12.344;2022-07-29T11:51:09;51.94;;;47.90;;
2824;SDS011;1420;51.324;12.344;2022-07-29T11:53:36;30.58;;;27.40;;
2824;SDS011;1420;51.324;12.344;2022-07-29T11:56:03;41.12;;;37.56;;
2824;SDS011;1420;51.324;12.344;2022-07-29T11:58:30;38.26;;;34.84;;
2824;SDS011;1420;51.324;12.344;2022-07-29T12:00:57;41.18;;;37.48;;
2824;SDS011;1420;51.324;12.344;2022-07-29T12:03:26;34.52;;;31.04;;
2824;SDS011;1420;51.324;12.344;2022-07-29T12:05:52;35.10;;;31.70;;
2824;SDS011;1420;51.324;12.344;2022-07-29T12:08:20;35.00;;;31.40;;
2824;SDS011;1420;51.324;12.344;2022-07-29T12:10:47;35.20;;;31.70;;
2824;SDS011;1420;51.324;12.344;2022-07-29T12:13:18;42.22;;;38.32;;
2824;SDS011;1420;51.324;12.344;2022-07-29T12:18:18;27.48;;;22.86;;
2824;SDS011;1420;51.324;12.344;2022-07-29T12:20:46;33.80;;;30.46;;
2824;SDS011;1420;51.324;12.344;2022-07-29T12:23:13;33.40;;;29.74;;
2824;SDS011;1420;51.324;12.344;2022-07-29T12:25:41;27.56;;;23.10;;
2824;SDS011;1420;51.324;12.344;2022-07-29T12:28:11;28.76;;;24.82;;
2824;SDS011;1420;51.324;12.344;2022-07-29T12:30:40;26.38;;;21.08;;
2824;SDS011;1420;51.324;12.344;2022-07-29T12:33:15;36.72;;;33.32;;
2824;SDS011;1420;51.324;12.344;2022-07-29T12:35:43;35.66;;;32.24;;
2824;SDS011;1420;51.324;12.344;2022-07-29T12:38:11;29.64;;;26.64;;
2824;SDS011;1420;51.324;12.344;2022-07-29T12:40:37;29.56;;;26.58;;
2824;SDS011;1420;51.324;12.344;2022-07-29T12:43:05;25.26;;;21.80;;
2824;SDS011;1420;51.324;12.344;2022-07-29T12:45:33;23.42;;;19.28;;
2824;SDS011;1420;51.324;12.344;2022-07-29T12:48:00;23.46;;;18.72;;
2824;SDS011;1420;51.324;12.344;2022-07-29T12:50:27;22.78;;;18.08;;
2824;SDS011;1420;51.324;12.344;2022-07-29T12:52:54;23.70;;;16.48;;
2824;SDS011;1420;51.324;12.344;2022-07-29T12:58:01;28.40;;;25.36;;
2824;SDS011;1420;51.324;12.344;2022-07-29T13:00:29;23.44;;;18.76;;
2824;SDS011;1420;51.324;12.344;2022-07-29T13:02:57;25.42;;;20.50;;
2824;SDS011;1420;51.324;12.344;2022-07-29T13:05:23;24.94;;;19.52;;
2824;SDS011;1420;51.324;12.344;2022-07-29T13:07:50;25.50;;;20.72;;
2824;SDS011;1420;51.324;12.344;2022-07-29T13:10:19;23.94;;;19.54;;
2824;SDS011;1420;51.324;12.344;2022-07-29T13:15:24;28.92;;;25.96;;
2824;SDS011;1420;51.324;12.344;2022-07-29T13:17:51;26.80;;;23.26;;
2824;SDS011;1420;51.324;12.344;2022-07-29T13:20:18;30.06;;;27.00;;
2824;SDS011;1420;51.324;12.344;2022-07-29T13:22:47;47.04;;;43.16;;
2824;SDS011;1420;51.324;12.344;2022-07-29T13:25:13;29.18;;;26.24;;
2824;SDS011;1420;51.324;12.344;2022-07-29T13:27:40;52.12;;;47.74;;
2824;SDS011;1420;51.324;12.344;2022-07-29T13:30:08;48.90;;;44.80;;
2824;SDS011;1420;51.324;12.344;2022-07-29T13:32:36;32.86;;;29.62;;
2824;SDS011;1420;51.324;12.344;2022-07-29T13:35:05;31.32;;;28.22;;
2824;SDS011;1420;51.324;12.344;2022-07-29T13:37:32;25.26;;;19.94;;
2824;SDS011;1420;51.324;12.344;2022-07-29T13:39:59;24.06;;;20.32;;
2824;SDS011;1420;51.324;12.344;2022-07-29T13:42:26;23.44;;;19.02;;
2824;SDS011;1420;51.324;12.344;2022-07-29T13:44:54;24.98;;;22.22;;
2824;SDS011;1420;51.324;12.344;2022-07-29T13:47:22;24.52;;;19.56;;
2824;SDS011;1420;51.324;12.344;2022-07-29T13:49:50;23.70;;;19.66;;
2824;SDS011;1420;51.324;12.344;2022-07-29T13:52:18;23.68;;;17.44;;
2824;SDS011;1420;51.324;12.344;2022-07-29T13:54:45;26.24;;;23.42;;
2824;SDS011;1420;51.324;12.344;2022-07-29T13:57:12;41.56;;;38.04;;
2824;SDS011;1420;51.324;12.344;2022-07-29T13:59:40;32.04;;;28.84;;
2824;SDS011;1420;51.324;12.344;2022-07-29T14:02:07;29.70;;;26.66;;
2824;SDS011;1420;51.324;12.344;2022-07-29T14:04:34;30.16;;;27.00;;
2824;SDS011;1420;51.324;12.344;2022-07-29T14:07:02;32.72;;;29.36;;
2824;SDS011;1420;51.324;12.344;2022-07-29T14:09:30;25.90;;;21.88;;
2824;SDS011;1420;51.324;12.344;2022-07-29T14:11:58;29.88;;;26.88;;
2824;SDS011;1420;51.324;12.344;2022-07-29T14:14:26;24.24;;;20.44;;
2824;SDS011;1420;51.324;12.344;2022-07-29T14:16:53;29.20;;;24.88;;
2824;SDS011;1420;51.324;12.344;2022-07-29T14:19:21;25.40;;;21.40;;
2824;SDS011;1420;51.324;12.344;2022-07-29T14:21:49;25.28;;;19.48;;
2824;SDS011;1420;51.324;12.344;2022-07-29T14:24:17;22.92;;;16.62;;
2824;SDS011;1420;51.324;12.344;2022-07-29T14:26:45;26.96;;;23.62;;
2824;SDS011;1420;51.324;12.344;2022-07-29T14:29:12;25.68;;;22.92;;
2824;SDS011;1420;51.324;12.344;2022-07-29T14:31:39;33.90;;;30.80;;
2824;SDS011;1420;51.324;12.344;2022-07-29T14:34:06;34.90;;;31.60;;
2824;SDS011;1420;51.324;12.344;2022-07-29T14:36:33;31.92;;;28.54;;
2824;SDS011;1420;51.324;12.344;2022-07-29T14:39:01;29.08;;;25.46;;
2824;SDS011;1420;51.324;12.344;2022-07-29T14:41:28;22.22;;;15.12;;
2824;SDS011;1420;51.324;12.344;2022-07-29T14:43:56;23.98;;;17.34;;
2824;SDS011;1420;51.324;12.344;2022-07-29T14:46:24;22.06;;;18.40;;
2824;SDS011;1420;51.324;12.344;2022-07-29T14:48:52;23.02;;;17.70;;
2824;SDS011;1420;51.324;12.344;2022-07-29T14:51:19;22.66;;;18.90;;
2824;SDS011;1420;51.324;12.344;2022-07-29T14:53:46;25.14;;;20.54;;
2824;SDS011;1420;51.324;12.344;2022-07-29T14:56:13;28.02;;;25.20;;
2824;SDS011;1420;51.324;12.344;2022-07-29T14:58:41;26.64;;;22.88;;
2824;SDS011;1420;51.324;12.344;2022-07-29T15:01:08;29.20;;;26.38;;
2824;SDS011;1420;51.324;12.344;2022-07-29T15:03:36;27.70;;;21.92;;
2824;SDS011;1420;51.324;12.344;2022-07-29T15:06:04;23.84;;;20.24;;
2824;SDS011;1420;51.324;12.344;2022-07-29T15:08:31;21.42;;;13.40;;
2824;SDS011;1420;51.324;12.344;2022-07-29T15:10:58;23.50;;;18.92;;
2824;SDS011;1420;51.324;12.344;2022-07-29T15:13:26;21.86;;;14.78;;
2824;SDS011;1420;51.324;12.344;2022-07-29T15:15:54;31.16;;;28.14;;
2824;SDS011;1420;51.324;12.344;2022-07-29T15:18:22;22.10;;;16.10;;
2824;SDS011;1420;51.324;12.344;2022-07-29T15:20:50;23.30;;;16.80;;
2824;SDS011;1420;51.324;12.344;2022-07-29T15:23:17;24.78;;;22.14;;
2824;SDS011;1420;51.324;12.344;2022-07-29T15:25:45;22.96;;;20.02;;